createdAt,value
2023-05-13T00:00:19.728Z,97390.41
2023-05-13T00:02:46.711Z,97401.91
2023-05-13T00:05:13.580Z,97400.94
2023-05-13T00:07:41.873Z,97401.56
2023-05-13T00:10:09.401Z,97412.72
2023-05-13T00:12:36.386Z,97406.78
2023-05-13T00:15:05.975Z,97400.72
2023-05-13T00:17:33.273Z,97414.38
2023-05-13T00:20:00.249Z,97406.81
2023-05-13T00:22:27.169Z,97408.75
2023-05-13T00:24:54.301Z,97404.66
2023-05-13T00:27:21.276Z,97395.97
2023-05-13T00:29:48.181Z,97394.84
2023-05-13T00:32:15.812Z,97399.13
2023-05-13T00:34:42.849Z,97387.56
2023-05-13T00:37:11.249Z,97391.03
2023-05-13T00:39:38.097Z,97395.66
2023-05-13T00:42:05.345Z,97406.84
2023-05-13T00:44:32.229Z,97405.66
2023-05-13T00:46:59.691Z,97395.66
2023-05-13T00:49:26.936Z,97414.06
2023-05-13T00:51:55.420Z,97401.72
2023-05-13T00:54:22.430Z,97400.75
2023-05-13T00:56:49.404Z,97395.69
2023-05-13T00:59:18.785Z,97385.31
2023-05-13T01:01:56.521Z,97412.91
2023-05-13T01:04:45.108Z,97414.72
2023-05-13T01:07:28.889Z,97407.00
2023-05-13T01:10:13.869Z,97411.44
2023-05-13T01:12:44.648Z,97403.19
2023-05-13T01:15:15.413Z,97385.97
2023-05-13T01:17:54.386Z,97393.69
2023-05-13T01:20:24.992Z,97395.66
2023-05-13T01:22:52.128Z,97403.22
2023-05-13T01:25:21.747Z,97400.72
2023-05-13T01:27:48.804Z,97397.94
2023-05-13T01:30:16.000Z,97395.81
2023-05-13T01:32:42.990Z,97396.47
2023-05-13T01:35:11.277Z,97414.69
2023-05-13T01:37:38.522Z,97405.34
2023-05-13T01:40:17.078Z,97411.03
2023-05-13T01:42:51.615Z,97407.09
2023-05-13T01:45:19.054Z,97407.09
2023-05-13T01:47:45.987Z,97421.09
2023-05-13T01:50:12.918Z,97419.91
2023-05-13T01:52:39.729Z,97400.53
2023-05-13T01:55:06.817Z,97403.81
2023-05-13T01:57:33.923Z,97408.03
2023-05-13T02:00:00.854Z,97418.06
2023-05-13T02:02:27.685Z,97403.88
2023-05-13T02:04:54.809Z,97399.75
2023-05-13T02:07:21.885Z,97421.41
2023-05-13T02:09:48.904Z,97410.84
2023-05-13T02:12:16.547Z,97399.84
2023-05-13T02:14:43.499Z,97404.78
2023-05-13T02:17:10.638Z,97400.28
2023-05-13T02:19:37.738Z,97422.34
2023-05-13T02:22:04.890Z,97398.72
2023-05-13T02:24:31.901Z,97402.00
2023-05-13T02:26:58.792Z,97410.25
2023-05-13T02:29:26.096Z,97420.78
2023-05-13T02:31:53.224Z,97410.25
2023-05-13T02:34:22.095Z,97410.84
2023-05-13T02:36:49.029Z,97408.69
2023-05-13T02:39:16.295Z,97393.06
2023-05-13T02:41:44.873Z,97401.09
2023-05-13T02:44:11.832Z,97399.25
2023-05-13T02:46:38.930Z,97398.72
2023-05-13T02:49:05.929Z,97395.22
2023-05-13T02:51:32.867Z,97386.94
2023-05-13T02:53:59.622Z,97394.25
2023-05-13T02:56:26.529Z,97402.47
2023-05-13T02:58:53.355Z,97404.34
2023-05-13T03:01:20.384Z,97389.75
2023-05-13T03:03:47.571Z,97381.00
2023-05-13T03:06:14.703Z,97404.50
2023-05-13T03:08:41.949Z,97389.00
2023-05-13T03:11:08.962Z,97373.84
2023-05-13T03:13:36.058Z,97394.75
2023-05-13T03:16:03.155Z,97378.75
2023-05-13T03:18:31.856Z,97372.69
2023-05-13T03:20:58.897Z,97378.78
2023-05-13T03:23:26.045Z,97375.34
2023-05-13T03:25:53.375Z,97371.91
2023-05-13T03:28:23.374Z,97378.75
2023-05-13T03:30:51.141Z,97395.81
2023-05-13T03:33:19.239Z,97383.84
2023-05-13T03:35:49.221Z,97384.00
2023-05-13T03:38:17.005Z,97382.97
2023-05-13T03:40:47.334Z,97385.28
2023-05-13T03:43:14.865Z,97390.31
2023-05-13T03:45:47.864Z,97392.84
2023-05-13T03:48:16.086Z,97392.72
2023-05-13T03:50:45.269Z,97399.53
2023-05-13T03:53:16.250Z,97396.53
2023-05-13T03:55:43.891Z,97394.22
2023-05-13T03:58:15.478Z,97385.19
2023-05-13T04:00:43.785Z,97400.94
2023-05-13T04:03:10.977Z,97404.47
2023-05-13T04:05:37.980Z,97391.38
2023-05-13T04:08:05.385Z,97395.63
2023-05-13T04:10:32.588Z,97392.84
2023-05-13T04:12:59.487Z,97397.59
2023-05-13T04:15:26.463Z,97396.97
2023-05-13T04:17:54.243Z,97401.91
2023-05-13T04:20:21.767Z,97396.25
2023-05-13T04:22:49.203Z,97401.25
2023-05-13T04:25:16.765Z,97410.41
2023-05-13T04:27:43.988Z,97424.53
2023-05-13T04:30:11.561Z,97404.84
2023-05-13T04:32:39.542Z,97398.47
2023-05-13T04:35:08.334Z,97411.88
2023-05-13T04:37:35.433Z,97421.59
2023-05-13T04:40:02.611Z,97431.84
2023-05-13T04:42:29.666Z,97401.03
2023-05-13T04:44:57.266Z,97393.81
2023-05-13T04:47:24.578Z,97423.44
2023-05-13T04:49:51.761Z,97405.16
2023-05-13T04:52:22.322Z,97409.97
2023-05-13T04:54:49.429Z,97410.97
2023-05-13T04:57:16.517Z,97408.72
2023-05-13T04:59:43.600Z,97418.72
2023-05-13T05:02:10.873Z,97423.47
2023-05-13T05:04:40.825Z,97421.16
2023-05-13T05:07:08.138Z,97428.72
2023-05-13T05:09:35.224Z,97427.50
2023-05-13T05:12:02.641Z,97432.91
2023-05-13T05:14:29.980Z,97429.09
2023-05-13T05:16:57.703Z,97432.44
2023-05-13T05:19:25.485Z,97455.00
2023-05-13T05:21:52.989Z,97437.72
2023-05-13T05:24:21.814Z,97466.34
2023-05-13T05:26:49.298Z,97455.47
2023-05-13T05:29:19.092Z,97437.41
2023-05-13T05:31:46.318Z,97431.66
2023-05-13T05:34:13.454Z,97432.94
2023-05-13T05:36:40.660Z,97431.31
2023-05-13T05:39:07.580Z,97456.31
2023-05-13T05:41:34.981Z,97454.50
2023-05-13T05:44:02.356Z,97462.88
2023-05-13T05:46:30.054Z,97455.16
2023-05-13T05:48:57.507Z,97480.78
2023-05-13T05:51:27.491Z,97470.44
2023-05-13T05:53:55.276Z,97464.25
2023-05-13T05:56:23.649Z,97476.91
2023-05-13T05:58:51.512Z,97472.31
2023-05-13T06:01:18.568Z,97471.13
2023-05-13T06:03:48.092Z,97461.50
2023-05-13T06:06:15.428Z,97462.75
2023-05-13T06:08:42.948Z,97471.63
2023-05-13T06:11:10.418Z,97457.53
2023-05-13T06:13:37.817Z,97460.69
2023-05-13T06:16:08.371Z,97479.94
2023-05-13T06:18:35.683Z,97461.00
2023-05-13T06:21:03.195Z,97460.63
2023-05-13T06:23:31.041Z,97461.09
2023-05-13T06:25:59.607Z,97471.41
2023-05-13T06:28:28.148Z,97465.78
2023-05-13T06:30:56.622Z,97484.91
2023-05-13T06:33:24.014Z,97475.94
2023-05-13T06:35:51.369Z,97469.06
2023-05-13T06:38:22.393Z,97475.44
2023-05-13T06:40:50.531Z,97478.00
2023-05-13T06:43:20.723Z,97484.31
2023-05-13T06:45:49.478Z,97462.50
2023-05-13T06:48:22.682Z,97471.16
2023-05-13T06:50:51.183Z,97487.53
2023-05-13T06:56:11.968Z,97461.81
2023-05-13T06:58:45.447Z,97463.66
2023-05-13T07:01:17.099Z,97477.28
2023-05-13T07:04:03.137Z,97458.78
2023-05-13T07:06:34.549Z,97450.25
2023-05-13T07:09:08.461Z,97465.13
2023-05-13T07:11:47.512Z,97457.25
2023-05-13T07:14:16.442Z,97452.16
2023-05-13T07:16:52.715Z,97447.13
2023-05-13T07:22:07.099Z,97454.38
2023-05-13T07:24:35.933Z,97456.63
2023-05-13T07:29:46.615Z,97448.78
2023-05-13T07:32:25.788Z,97449.34
2023-05-13T07:34:53.660Z,97447.47
2023-05-13T07:37:29.701Z,97448.16
2023-05-13T07:39:56.883Z,97448.63
2023-05-13T07:42:53.886Z,97447.69
2023-05-13T07:48:11.397Z,97442.59
2023-05-13T07:50:43.685Z,97439.28
2023-05-13T07:53:23.997Z,97446.19
2023-05-13T07:55:52.350Z,97440.72
2023-05-13T07:58:23.489Z,97438.44
2023-05-13T08:03:41.297Z,97434.69
2023-05-13T08:06:20.263Z,97438.09
2023-05-13T08:08:51.403Z,97441.22
2023-05-13T08:14:17.311Z,97429.34
2023-05-13T08:16:57.252Z,97445.28
2023-05-13T08:27:44.635Z,97447.84
2023-05-13T08:30:32.363Z,97441.09
2023-05-13T08:32:59.665Z,97440.09
2023-05-13T08:38:10.799Z,97438.25
2023-05-13T08:43:15.485Z,97440.38
2023-05-13T08:45:42.948Z,97441.50
2023-05-13T08:48:10.461Z,97428.88
2023-05-13T08:50:37.312Z,97432.47
2023-05-13T08:53:04.755Z,97429.31
2023-05-13T08:55:31.437Z,97443.28
2023-05-13T08:57:58.538Z,97439.47
2023-05-13T09:00:26.007Z,97431.19
2023-05-13T09:03:12.310Z,97438.66
2023-05-13T09:08:39.052Z,97444.06
2023-05-13T09:11:07.919Z,97430.03
2023-05-13T09:13:35.982Z,97425.66
2023-05-13T09:16:04.412Z,97422.50
2023-05-13T09:18:52.681Z,97419.97
2023-05-13T09:21:33.488Z,97405.56
2023-05-13T09:24:20.410Z,97404.72
2023-05-13T09:26:52.089Z,97413.44
2023-05-13T09:29:29.888Z,97416.38
2023-05-13T09:32:00.101Z,97404.38
2023-05-13T09:34:29.515Z,97407.44
2023-05-13T09:37:03.263Z,97418.16
2023-05-13T09:39:38.081Z,97412.28
2023-05-13T09:42:06.531Z,97407.81
2023-05-13T09:50:29.141Z,97414.16
2023-05-13T09:52:59.076Z,97422.09
2023-05-13T09:55:26.434Z,97417.03
2023-05-13T09:57:54.057Z,97421.59
2023-05-13T10:00:35.460Z,97413.28
2023-05-13T10:03:08.306Z,97419.59
2023-05-13T10:08:23.867Z,97412.41
2023-05-13T10:10:55.202Z,97411.34
2023-05-13T10:13:29.261Z,97420.75
2023-05-13T10:16:05.022Z,97408.25
2023-05-13T10:18:40.789Z,97417.34
2023-05-13T10:21:10.296Z,97395.69
2023-05-13T10:23:39.766Z,97405.19
2023-05-13T10:26:07.952Z,97411.59
2023-05-13T10:28:35.027Z,97403.06
2023-05-13T10:31:03.220Z,97400.25
2023-05-13T10:33:31.197Z,97410.00
2023-05-13T10:36:20.415Z,97401.44
2023-05-13T10:39:02.654Z,97411.56
2023-05-13T10:41:59.959Z,97417.72
2023-05-13T10:45:03.306Z,97405.31
2023-05-13T10:47:34.082Z,97398.31
2023-05-13T10:50:06.227Z,97402.03
2023-05-13T10:52:48.683Z,97398.34
2023-05-13T10:55:20.809Z,97415.22
2023-05-13T10:58:29.871Z,97405.63
2023-05-13T11:01:16.383Z,97402.19
2023-05-13T11:04:21.633Z,97391.34
2023-05-13T11:06:51.762Z,97405.47
2023-05-13T11:09:29.111Z,97406.91
2023-05-13T11:12:06.388Z,97389.66
2023-05-13T11:14:33.544Z,97413.75
2023-05-13T11:17:01.249Z,97409.09
2023-05-13T11:19:32.404Z,97416.25
2023-05-13T11:22:07.010Z,97408.47
2023-05-13T11:27:25.765Z,97407.34
2023-05-13T11:29:56.132Z,97406.09
2023-05-13T11:33:07.982Z,97429.63
2023-05-13T11:35:35.134Z,97398.56
2023-05-13T11:38:03.752Z,97401.00
2023-05-13T11:40:34.267Z,97406.75
2023-05-13T11:43:02.434Z,97398.56
2023-05-13T11:45:35.837Z,97401.72
2023-05-13T11:48:24.520Z,97399.22
2023-05-13T11:50:53.866Z,97387.34
2023-05-13T11:53:24.039Z,97383.06
2023-05-13T11:55:57.037Z,97381.38
2023-05-13T11:58:24.563Z,97382.22
2023-05-13T12:00:53.893Z,97390.03
2023-05-13T12:04:01.171Z,97374.03
2023-05-13T12:06:37.816Z,97373.13
2023-05-13T12:10:05.147Z,97379.13
2023-05-13T12:12:40.299Z,97380.88
2023-05-13T12:15:11.140Z,97369.78
2023-05-13T12:20:32.165Z,97384.56
2023-05-13T12:23:09.220Z,97396.38
2023-05-13T12:25:59.381Z,97385.13
2023-05-13T12:28:30.412Z,97401.97
2023-05-13T12:30:59.070Z,97414.78
2023-05-13T12:33:26.866Z,97403.34
2023-05-13T12:35:55.667Z,97400.38
2023-05-13T12:38:24.583Z,97398.41
2023-05-13T12:40:52.511Z,97401.97
2023-05-13T12:43:19.849Z,97398.25
2023-05-13T12:45:48.233Z,97392.13
2023-05-13T12:48:15.017Z,97404.53
2023-05-13T12:50:41.682Z,97395.56
2023-05-13T12:53:08.356Z,97391.53
2023-05-13T12:55:40.080Z,97393.00
2023-05-13T12:58:10.930Z,97404.50
2023-05-13T13:00:37.691Z,97399.31
2023-05-13T13:03:04.544Z,97397.03
2023-05-13T13:05:31.941Z,97387.81
2023-05-13T13:07:58.687Z,97393.16
2023-05-13T13:10:25.454Z,97385.78
2023-05-13T13:12:52.398Z,97371.44
2023-05-13T13:15:19.463Z,97366.25
2023-05-13T13:17:46.284Z,97365.97
2023-05-13T13:20:13.040Z,97384.91
2023-05-13T13:22:39.811Z,97378.59
2023-05-13T13:25:07.040Z,97374.34
2023-05-13T13:27:34.795Z,97353.28
2023-05-13T13:30:01.728Z,97368.81
2023-05-13T13:32:29.544Z,97351.31
2023-05-13T13:34:58.179Z,97366.88
2023-05-13T13:37:24.925Z,97362.94
2023-05-13T13:39:51.813Z,97362.72
2023-05-13T13:42:18.858Z,97386.28
2023-05-13T13:44:46.646Z,97413.75
2023-05-13T13:47:15.749Z,97415.16
2023-05-13T13:49:47.349Z,97437.94
2023-05-13T13:52:17.910Z,97430.28
2023-05-13T13:57:33.552Z,97435.84
2023-05-13T14:00:02.286Z,97434.34
2023-05-13T14:02:34.632Z,97450.50
2023-05-13T14:05:02.772Z,97443.09
2023-05-13T14:07:46.950Z,97447.28
2023-05-13T14:10:14.309Z,97440.53
2023-05-13T14:12:41.623Z,97446.56
2023-05-13T14:17:57.152Z,97443.38
2023-05-13T14:23:23.103Z,97450.50
2023-05-13T14:25:55.785Z,97452.25
2023-05-13T14:46:01.819Z,97425.03
2023-05-13T14:48:43.779Z,97420.53
2023-05-13T15:14:10.699Z,97392.28
2023-05-13T15:16:38.461Z,97410.25
2023-05-13T15:19:07.840Z,97382.28
2023-05-13T15:21:35.356Z,97385.09
2023-05-13T15:24:02.518Z,97402.81
2023-05-13T15:26:32.923Z,97398.16
2023-05-13T15:28:59.990Z,97378.94
2023-05-13T15:31:30.480Z,97379.31
2023-05-13T15:33:59.205Z,97389.06
2023-05-13T15:36:31.390Z,97375.94
2023-05-13T15:38:58.622Z,97374.88
2023-05-13T15:41:25.700Z,97369.22
2023-05-13T15:44:00.547Z,97385.34
2023-05-13T15:46:30.638Z,97382.13
2023-05-13T15:49:01.654Z,97380.63
2023-05-13T15:51:32.004Z,97393.03
2023-05-13T15:54:03.793Z,97380.28
2023-05-13T15:56:34.379Z,97383.00
2023-05-13T15:59:04.378Z,97383.59
2023-05-13T16:07:29.017Z,97382.84
2023-05-13T16:09:55.767Z,97380.75
2023-05-13T16:12:25.153Z,97383.56
2023-05-13T16:14:51.837Z,97372.94
2023-05-13T16:17:18.609Z,97364.84
2023-05-13T16:19:45.360Z,97379.88
2023-05-13T16:22:34.833Z,97387.25
2023-05-13T16:25:03.273Z,97362.75
2023-05-13T16:27:30.471Z,97373.44
2023-05-13T16:29:58.117Z,97370.84
2023-05-13T16:32:25.287Z,97381.41
2023-05-13T16:34:52.608Z,97394.75
2023-05-13T16:37:19.366Z,97395.09
2023-05-13T16:39:46.310Z,97385.84
2023-05-13T16:42:13.065Z,97396.91
2023-05-13T16:44:39.897Z,97389.78
2023-05-13T16:47:08.693Z,97399.81
2023-05-13T16:49:36.513Z,97383.06
2023-05-13T16:52:04.468Z,97386.97
2023-05-13T16:54:31.502Z,97387.13
2023-05-13T16:56:58.664Z,97396.69
2023-05-13T16:59:27.609Z,97392.28
2023-05-13T17:01:54.604Z,97384.13
2023-05-13T17:04:22.700Z,97379.03
2023-05-13T17:06:49.573Z,97372.28
2023-05-13T17:09:17.274Z,97388.66
2023-05-13T17:11:44.041Z,97371.47
2023-05-13T17:14:10.798Z,97378.97
2023-05-13T17:16:38.868Z,97388.16
2023-05-13T17:19:06.685Z,97373.81
2023-05-13T17:26:58.648Z,97375.75
2023-05-13T17:29:26.791Z,97382.63
2023-05-13T17:31:56.127Z,97387.38
2023-05-13T17:34:24.833Z,97367.00
2023-05-13T18:41:17.623Z,97358.19
2023-05-13T18:43:44.484Z,97355.53
2023-05-13T18:46:11.952Z,97359.84
2023-05-13T18:48:38.567Z,97353.94
2023-05-13T18:51:05.381Z,97373.50
2023-05-13T18:53:32.311Z,97372.22
2023-05-13T18:55:59.235Z,97374.13
2023-05-13T18:58:26.964Z,97378.31
2023-05-13T19:00:54.066Z,97370.66
2023-05-13T19:03:20.940Z,97391.84
2023-05-13T19:05:48.547Z,97383.09
2023-05-13T19:08:22.818Z,97388.00
2023-05-13T19:10:52.950Z,97384.22
2023-05-13T19:13:33.056Z,97388.94
2023-05-13T19:16:15.585Z,97391.94
2023-05-13T19:18:46.599Z,97389.91
2023-05-13T19:21:16.757Z,97393.63
2023-05-13T19:23:49.854Z,97394.75
2023-05-13T19:26:25.716Z,97392.94
2023-05-13T19:35:08.881Z,97403.81
2023-05-13T19:40:23.776Z,97404.44
2023-05-13T19:43:06.030Z,97414.59
2023-05-13T19:45:39.886Z,97412.25
2023-05-13T19:51:12.350Z,97410.38
2023-05-13T19:53:48.600Z,97418.81
2023-05-13T19:59:05.791Z,97419.06
2023-05-13T20:10:04.605Z,97419.56
2023-05-13T20:12:42.277Z,97414.22
2023-05-13T20:15:18.687Z,97413.47
2023-05-13T20:17:47.919Z,97417.09
2023-05-13T20:20:23.014Z,97421.28
2023-05-13T20:22:53.016Z,97406.03
2023-05-13T20:25:29.717Z,97417.66
2023-05-13T20:27:57.112Z,97427.94
2023-05-13T20:30:26.414Z,97417.00
2023-05-13T20:33:01.000Z,97417.53
2023-05-13T20:35:32.027Z,97408.97
2023-05-13T20:38:05.546Z,97417.53
2023-05-13T20:40:32.919Z,97424.75
2023-05-13T20:43:03.093Z,97405.44
2023-05-13T20:45:31.856Z,97410.19
2023-05-13T20:48:00.415Z,97404.28
2023-05-13T20:50:32.200Z,97417.00
2023-05-13T20:52:59.398Z,97416.34
2023-05-13T20:55:29.791Z,97421.09
2023-05-13T20:57:57.218Z,97416.00
2023-05-13T21:00:24.793Z,97419.31
2023-05-13T21:03:02.535Z,97414.72
2023-05-13T21:05:30.936Z,97412.44
2023-05-13T21:07:58.807Z,97424.25
2023-05-13T21:10:29.930Z,97429.16
2023-05-13T21:12:58.415Z,97415.22
2023-05-13T21:15:29.953Z,97435.25
2023-05-13T21:18:01.066Z,97431.47
2023-05-13T21:20:33.146Z,97415.06
2023-05-13T21:23:16.154Z,97436.41
2023-05-13T22:26:37.174Z,97433.41
2023-05-13T22:32:01.962Z,97430.97
2023-05-13T22:58:47.771Z,97424.53
2023-05-13T23:06:53.252Z,97414.06
2023-05-13T23:09:23.187Z,97437.06
2023-05-13T23:14:48.647Z,97411.03
